Time;durP1;ratioP1;P1;durP2;ratioP2;P2;SDS_P1;SDS_P2;PMS_P1;PMS_P2;Temp;Humidity;BMP_temperature;BMP_pressure;BME280_temperature;BME280_humidity;BME280_pressure;Samples;Min_cycle;Max_cycle;Signal;HPM_P1;HPM_P2
2021/09/09 00:00:46;;;;;;;18.55;13.35;;;14.70;99.90;;;;;;5048840;28;20491;-45
2021/09/09 00:03:11;;;;;;;19.10;13.80;;;14.60;99.90;;;;;;5045606;28;20178;-45
2021/09/09 00:05:37;;;;;;;22.10;14.20;;;14.60;99.90;;;;;;5057341;28;20036;-44
2021/09/09 00:08:03;;;;;;;18.60;14.30;;;14.60;99.90;;;;;;5045978;28;20484;-47
2021/09/09 00:10:29;;;;;;;19.05;14.15;;;14.50;99.90;;;;;;5029074;28;20156;-45
2021/09/09 00:12:54;;;;;;;17.05;12.95;;;14.50;99.90;;;;;;5028733;28;20163;-44
2021/09/09 00:15:20;;;;;;;20.25;14.88;;;14.40;99.90;;;;;;5036403;28;20501;-45
2021/09/09 00:17:46;;;;;;;21.73;14.90;;;14.50;99.90;;;;;;5047810;28;20033;-45
2021/09/09 00:20:12;;;;;;;19.00;14.73;;;14.50;99.90;;;;;;5048641;28;20433;-44
2021/09/09 00:22:39;;;;;;;17.92;13.95;;;14.50;99.90;;;;;;5052224;28;20017;-45
2021/09/09 00:25:05;;;;;;;21.17;14.43;;;14.40;99.90;;;;;;5058843;28;20044;-46
2021/09/09 00:27:30;;;;;;;17.92;12.98;;;14.40;99.90;;;;;;5068119;28;20060;-46
2021/09/09 00:29:56;;;;;;;19.50;14.25;;;14.40;99.90;;;;;;5062230;28;20016;-46
2021/09/09 00:32:21;;;;;;;19.27;14.02;;;14.40;99.90;;;;;;5061921;28;20096;-45
2021/09/09 00:34:47;;;;;;;21.15;14.73;;;14.30;99.90;;;;;;5051046;28;20392;-46
2021/09/09 00:37:12;;;;;;;20.90;14.68;;;14.30;99.90;;;;;;5062125;28;20083;-45
2021/09/09 00:39:37;;;;;;;24.67;14.90;;;14.30;99.90;;;;;;5055139;28;20083;-44
2021/09/09 00:42:03;;;;;;;19.15;14.55;;;14.30;99.90;;;;;;5053708;28;20038;-45
2021/09/09 00:44:29;;;;;;;20.25;14.07;;;14.20;99.90;;;;;;5063069;28;20032;-44
2021/09/09 00:47:02;;;;;;;21.30;14.55;;;14.20;99.90;;;;;;5036803;28;20151;-45
2021/09/09 00:49:28;;;;;;;26.25;16.45;;;14.20;99.90;;;;;;5043310;28;20091;-45
2021/09/09 00:51:54;;;;;;;22.55;15.38;;;14.20;99.90;;;;;;5061764;28;20413;-45
2021/09/09 00:54:20;;;;;;;22.50;15.93;;;14.20;99.90;;;;;;5055275;28;20082;-46
2021/09/09 00:56:46;;;;;;;27.90;17.23;;;14.20;99.90;;;;;;5055524;28;20028;-44
2021/09/09 00:59:11;;;;;;;22.08;16.23;;;14.20;99.90;;;;;;5062912;28;20032;-46
2021/09/09 01:01:36;;;;;;;24.15;17.55;;;14.30;99.90;;;;;;5054069;28;20060;-45
2021/09/09 01:04:02;;;;;;;26.75;17.02;;;14.30;99.90;;;;;;5064532;28;20036;-45
2021/09/09 01:06:28;;;;;;;23.27;16.63;;;14.30;99.90;;;;;;5063972;28;20028;-45
2021/09/09 01:08:54;;;;;;;25.65;17.45;;;14.30;99.90;;;;;;5054758;28;20032;-45
2021/09/09 01:11:19;;;;;;;23.10;16.48;;;14.30;99.90;;;;;;5039388;28;20017;-45
2021/09/09 01:13:52;;;;;;;23.67;16.88;;;14.30;99.90;;;;;;5033731;28;20099;-45
2021/09/09 01:16:19;;;;;;;23.13;17.33;;;14.20;99.90;;;;;;5039553;28;20024;-46
2021/09/09 01:18:45;;;;;;;23.30;16.98;;;14.20;99.90;;;;;;5042353;28;20033;-46
2021/09/09 01:21:10;;;;;;;23.88;17.65;;;14.20;99.90;;;;;;5035119;28;20025;-45
2021/09/09 01:23:36;;;;;;;23.17;16.95;;;14.20;99.90;;;;;;5034608;28;20025;-47
2021/09/09 01:26:03;;;;;;;24.00;17.50;;;14.10;99.90;;;;;;5040611;28;20410;-45
2021/09/09 01:28:29;;;;;;;25.65;17.30;;;14.10;99.90;;;;;;5056950;28;20017;-46
2021/09/09 01:30:54;;;;;;;26.60;17.67;;;14.10;99.90;;;;;;5063393;28;20025;-45
2021/09/09 01:33:20;;;;;;;26.92;18.02;;;14.20;99.90;;;;;;5051945;28;20515;-46
2021/09/09 01:35:45;;;;;;;28.50;17.70;;;14.20;99.90;;;;;;5054160;28;20116;-45
2021/09/09 01:38:21;;;;;;;24.90;18.17;;;14.10;99.90;;;;;;5049240;28;20028;-45
2021/09/09 01:40:47;;;;;;;26.63;19.52;;;14.10;99.90;;;;;;5062901;28;20017;-46
2021/09/09 01:43:13;;;;;;;27.50;18.63;;;14.10;99.90;;;;;;5062833;28;20039;-45
2021/09/09 01:45:38;;;;;;;23.20;17.75;;;14.10;99.90;;;;;;5055517;28;20020;-45
2021/09/09 01:48:04;;;;;;;32.72;20.05;;;14.10;99.90;;;;;;5061879;28;20458;-47
2021/09/09 01:50:30;;;;;;;25.88;18.88;;;14.10;99.90;;;;;;5051322;28;20124;-45
2021/09/09 01:52:55;;;;;;;29.65;19.25;;;14.10;99.90;;;;;;5047286;28;20121;-45
2021/09/09 01:55:21;;;;;;;29.75;19.40;;;14.00;99.90;;;;;;5029858;28;20068;-48
2021/09/09 01:57:47;;;;;;;24.92;18.48;;;14.00;99.90;;;;;;5035311;28;20483;-44
2021/09/09 02:00:13;;;;;;;26.25;19.42;;;13.90;99.90;;;;;;5053211;28;20074;-45
2021/09/09 02:02:43;;;;;;;28.90;20.13;;;13.90;99.90;;;;;;5062607;28;20012;-45
2021/09/09 02:05:10;;;;;;;29.30;20.30;;;13.90;99.90;;;;;;5050681;28;20441;-45
2021/09/09 02:07:36;;;;;;;27.30;19.95;;;13.90;99.90;;;;;;5046765;28;20051;-45
2021/09/09 02:10:02;;;;;;;31.55;19.75;;;13.90;99.90;;;;;;5058861;28;20677;-45
2021/09/09 02:12:27;;;;;;;28.67;19.55;;;13.90;99.90;;;;;;5049914;28;20498;-45
2021/09/09 02:14:53;;;;;;;28.67;20.85;;;13.90;99.90;;;;;;5049758;28;20040;-45
2021/09/09 02:17:18;;;;;;;32.55;22.10;;;13.90;99.90;;;;;;5057909;28;20036;-47
2021/09/09 02:19:44;;;;;;;29.15;20.30;;;13.90;99.90;;;;;;5050920;28;20467;-48
2021/09/09 02:22:09;;;;;;;27.23;20.33;;;13.90;99.90;;;;;;5047038;28;20318;-46
2021/09/09 02:24:36;;;;;;;32.47;21.60;;;13.90;99.90;;;;;;5052658;28;20602;-47
2021/09/09 02:27:01;;;;;;;28.27;20.23;;;13.80;99.90;;;;;;5068706;28;20082;-45
2021/09/09 02:29:27;;;;;;;24.25;19.45;;;13.80;99.90;;;;;;5052663;28;20033;-45
2021/09/09 02:31:52;;;;;;;28.73;20.52;;;13.80;99.90;;;;;;5057754;28;20028;-47
2021/09/09 02:34:18;;;;;;;26.75;20.40;;;13.70;99.90;;;;;;5069947;28;20028;-45
2021/09/09 02:36:43;;;;;;;29.58;19.80;;;13.70;99.90;;;;;;5069609;28;20511;-45
2021/09/09 02:39:08;;;;;;;28.50;20.73;;;13.70;99.90;;;;;;5054891;28;20482;-45
2021/09/09 02:41:34;;;;;;;29.73;20.52;;;13.70;99.90;;;;;;5053723;28;20036;-45
2021/09/09 02:43:59;;;;;;;27.67;20.73;;;13.70;99.90;;;;;;5050063;28;20102;-46
2021/09/09 02:46:25;;;;;;;27.00;20.98;;;13.60;99.90;;;;;;5049431;28;20033;-45
2021/09/09 02:48:51;;;;;;;27.50;20.55;;;13.70;99.90;;;;;;5047452;28;20158;-47
2021/09/09 02:51:17;;;;;;;29.63;20.27;;;13.60;99.90;;;;;;5050869;28;20016;-45
2021/09/09 02:53:42;;;;;;;27.67;20.42;;;13.60;99.90;;;;;;5050007;28;20020;-46
2021/09/09 02:56:08;;;;;;;34.05;22.08;;;13.60;99.90;;;;;;5049736;28;20159;-45
2021/09/09 02:58:34;;;;;;;27.35;20.75;;;13.60;99.90;;;;;;5053302;28;20374;-45
2021/09/09 03:00:59;;;;;;;32.47;21.02;;;13.60;99.90;;;;;;5060760;28;20025;-45
2021/09/09 03:03:25;;;;;;;29.67;22.45;;;13.60;99.90;;;;;;5063989;28;20568;-46
2021/09/09 03:05:50;;;;;;;31.10;22.50;;;13.60;99.90;;;;;;5056565;28;20191;-46
2021/09/09 03:08:16;;;;;;;31.90;21.95;;;13.50;99.90;;;;;;5067658;28;20061;-46
2021/09/09 03:10:41;;;;;;;29.23;21.83;;;13.50;99.90;;;;;;5051391;28;20104;-45
2021/09/09 03:13:07;;;;;;;33.20;22.02;;;13.50;99.90;;;;;;5029630;28;20038;-46
2021/09/09 03:15:32;;;;;;;35.08;23.20;;;13.40;99.90;;;;;;5029772;28;20057;-45
2021/09/09 03:17:57;;;;;;;31.75;22.38;;;13.40;99.90;;;;;;5028994;28;20631;-46
2021/09/09 03:20:23;;;;;;;31.35;22.60;;;13.40;99.90;;;;;;5050616;28;20021;-45
2021/09/09 03:22:48;;;;;;;32.33;23.00;;;13.40;99.90;;;;;;5066812;28;20547;-46
2021/09/09 03:25:14;;;;;;;36.03;24.13;;;13.40;99.90;;;;;;5062988;28;20124;-46
2021/09/09 03:27:39;;;;;;;32.45;21.88;;;13.40;99.90;;;;;;5052157;28;20474;-47
2021/09/09 03:30:06;;;;;;;30.73;21.80;;;13.30;99.90;;;;;;5048800;28;20482;-46
2021/09/09 03:32:31;;;;;;;33.63;22.15;;;13.40;99.90;;;;;;5040006;28;20032;-45
2021/09/09 03:34:57;;;;;;;29.10;21.15;;;13.30;99.90;;;;;;5055812;28;20029;-47
2021/09/09 03:37:22;;;;;;;36.78;21.80;;;13.30;99.90;;;;;;5047727;28;20034;-45
2021/09/09 03:39:48;;;;;;;30.60;22.55;;;13.30;99.90;;;;;;5050425;28;20016;-46
2021/09/09 03:42:13;;;;;;;33.75;23.58;;;13.20;99.90;;;;;;5061095;28;20033;-46
2021/09/09 03:44:39;;;;;;;31.90;22.30;;;13.20;99.90;;;;;;5048882;28;20487;-45
2021/09/09 03:47:04;;;;;;;32.83;22.17;;;13.20;99.90;;;;;;5044090;28;20028;-47
2021/09/09 03:49:30;;;;;;;32.03;22.70;;;13.20;99.90;;;;;;5059503;28;20534;-46
2021/09/09 03:51:55;;;;;;;35.70;23.92;;;13.20;99.90;;;;;;5060468;28;20021;-45
2021/09/09 03:54:21;;;;;;;28.42;20.83;;;13.20;99.90;;;;;;5052125;28;20079;-46
2021/09/09 03:56:46;;;;;;;32.15;22.10;;;13.10;99.90;;;;;;5065485;28;20024;-45
2021/09/09 03:59:12;;;;;;;30.63;22.35;;;13.10;99.90;;;;;;5068938;28;20263;-46
2021/09/09 04:01:37;;;;;;;31.95;22.90;;;13.10;99.90;;;;;;5057859;28;20448;-45
2021/09/09 04:04:03;;;;;;;29.85;22.70;;;13.10;99.90;;;;;;5037213;28;20044;-47
2021/09/09 04:06:28;;;;;;;33.80;24.02;;;13.10;99.90;;;;;;5028446;28;20387;-46
2021/09/09 04:08:54;;;;;;;32.95;22.27;;;13.00;99.90;;;;;;5039853;28;20025;-46
2021/09/09 04:11:19;;;;;;;32.63;23.05;;;13.00;99.90;;;;;;5055132;28;20032;-46
2021/09/09 04:13:45;;;;;;;34.45;23.17;;;13.00;99.90;;;;;;5048513;28;20039;-47
2021/09/09 04:16:10;;;;;;;31.40;22.30;;;13.00;99.90;;;;;;5047839;28;20040;-45
2021/09/09 04:18:36;;;;;;;32.20;22.13;;;13.00;99.90;;;;;;5047873;28;20421;-46
2021/09/09 04:21:02;;;;;;;30.73;22.58;;;12.90;99.90;;;;;;5049101;28;20025;-46
2021/09/09 04:23:27;;;;;;;33.00;22.27;;;12.90;99.90;;;;;;5043163;28;20128;-46
2021/09/09 04:25:53;;;;;;;30.23;21.40;;;12.90;99.90;;;;;;5057032;28;20124;-45
2021/09/09 04:28:18;;;;;;;34.90;24.10;;;12.90;99.90;;;;;;5047701;28;20280;-45
2021/09/09 04:30:44;;;;;;;34.65;23.45;;;12.90;99.90;;;;;;5052120;28;20021;-45
2021/09/09 04:33:09;;;;;;;32.22;23.02;;;12.90;99.90;;;;;;5065689;28;20055;-47
2021/09/09 04:35:35;;;;;;;28.77;22.00;;;12.90;99.90;;;;;;5046806;28;20094;-45
2021/09/09 04:38:00;;;;;;;35.65;23.10;;;12.90;99.90;;;;;;5059359;28;20138;-45
2021/09/09 04:40:26;;;;;;;35.33;25.42;;;12.90;99.90;;;;;;5067152;28;20119;-45
2021/09/09 04:42:51;;;;;;;35.80;23.17;;;12.90;99.90;;;;;;5068539;28;20095;-47
2021/09/09 04:45:17;;;;;;;35.28;23.63;;;12.80;99.90;;;;;;5050276;28;20032;-48
2021/09/09 04:47:42;;;;;;;32.65;21.60;;;12.80;99.90;;;;;;5040640;28;20029;-46
2021/09/09 04:50:08;;;;;;;31.92;23.95;;;12.80;99.90;;;;;;5059881;28;20203;-46
2021/09/09 04:52:34;;;;;;;32.30;22.23;;;12.80;99.90;;;;;;5062292;28;20040;-46
2021/09/09 04:54:59;;;;;;;31.20;23.00;;;12.90;99.90;;;;;;5048380;28;20421;-46
2021/09/09 04:57:25;;;;;;;31.25;23.02;;;12.80;99.90;;;;;;5046515;28;20462;-47
2021/09/09 04:59:50;;;;;;;30.45;23.02;;;12.80;99.90;;;;;;5039420;28;20029;-46
2021/09/09 05:02:16;;;;;;;33.47;24.73;;;12.80;99.90;;;;;;5034784;28;20032;-45
2021/09/09 05:04:41;;;;;;;35.33;23.48;;;12.80;99.90;;;;;;5050038;28;20029;-48
2021/09/09 05:07:07;;;;;;;36.58;25.13;;;12.80;99.90;;;;;;5039561;28;20329;-45
2021/09/09 05:09:32;;;;;;;35.63;25.05;;;12.80;99.90;;;;;;5041738;28;20388;-45
2021/09/09 05:11:58;;;;;;;31.33;22.83;;;12.80;99.90;;;;;;5040222;28;20471;-43
2021/09/09 05:14:23;;;;;;;38.55;24.17;;;12.80;99.90;;;;;;5041502;28;20033;-43
2021/09/09 05:16:49;;;;;;;36.38;24.48;;;12.80;99.90;;;;;;5048768;28;20013;-43
2021/09/09 05:19:14;;;;;;;35.55;25.10;;;12.80;99.90;;;;;;5069417;28;20028;-44
2021/09/09 05:21:40;;;;;;;35.17;24.08;;;12.90;99.90;;;;;;5070985;28;20158;-44
2021/09/09 05:24:05;;;;;;;32.83;23.95;;;12.90;99.90;;;;;;5065621;28;20064;-43
2021/09/09 05:26:31;;;;;;;35.38;24.02;;;12.90;99.90;;;;;;5056435;28;20035;-43
2021/09/09 05:28:56;;;;;;;29.17;22.15;;;12.90;99.90;;;;;;5051854;28;20641;-44
2021/09/09 05:31:22;;;;;;;29.80;20.23;;;12.90;99.90;;;;;;5051484;28;20043;-43
2021/09/09 05:33:47;;;;;;;30.75;22.15;;;13.00;99.90;;;;;;5050245;28;20024;-45
2021/09/09 05:36:13;;;;;;;29.35;21.67;;;12.90;99.90;;;;;;5061323;28;20017;-44
2021/09/09 05:38:38;;;;;;;34.28;24.08;;;13.00;99.90;;;;;;5040905;28;20056;-46
2021/09/09 05:41:04;;;;;;;35.42;24.20;;;13.00;99.90;;;;;;5047007;28;20470;-45
2021/09/09 05:43:29;;;;;;;31.33;23.63;;;13.00;99.90;;;;;;5047346;28;20025;-43
2021/09/09 05:45:55;;;;;;;37.30;25.25;;;13.00;99.90;;;;;;5050121;28;20497;-44
2021/09/09 05:48:21;;;;;;;33.42;24.88;;;13.10;99.90;;;;;;5045145;28;20352;-44
2021/09/09 05:50:46;;;;;;;32.50;24.02;;;13.10;99.90;;;;;;5050189;28;20033;-44
2021/09/09 05:53:11;;;;;;;32.28;24.10;;;13.10;99.90;;;;;;5049666;28;20421;-43
2021/09/09 05:55:37;;;;;;;31.00;22.73;;;13.20;99.90;;;;;;5050969;28;20036;-44
2021/09/09 05:58:03;;;;;;;34.85;24.08;;;13.20;99.90;;;;;;5049579;28;20037;-46
2021/09/09 06:00:29;;;;;;;33.03;23.15;;;13.30;99.90;;;;;;5065308;28;20065;-44
2021/09/09 06:03:00;;;;;;;34.88;23.60;;;13.30;99.90;;;;;;5070713;28;20021;-44
2021/09/09 06:05:27;;;;;;;30.55;22.38;;;13.30;99.90;;;;;;5070779;28;20031;-44
2021/09/09 06:07:52;;;;;;;42.30;26.45;;;13.40;99.90;;;;;;5070174;28;20402;-43
2021/09/09 06:10:18;;;;;;;35.55;23.48;;;13.40;99.90;;;;;;5067560;28;20023;-45
2021/09/09 06:12:43;;;;;;;33.78;25.08;;;13.50;99.90;;;;;;5055152;28;20040;-44
2021/09/09 06:15:09;;;;;;;34.33;23.02;;;13.50;99.90;;;;;;5060703;28;20032;-44
2021/09/09 06:17:36;;;;;;;35.15;24.20;;;13.50;99.90;;;;;;5043320;28;20556;-44
2021/09/09 06:20:03;;;;;;;31.23;22.73;;;13.60;99.90;;;;;;5058207;28;20470;-46
2021/09/09 06:22:29;;;;;;;36.33;26.02;;;13.60;99.90;;;;;;5043339;28;20025;-45
2021/09/09 06:24:54;;;;;;;31.77;23.38;;;13.70;99.90;;;;;;5057535;28;20047;-45
2021/09/09 06:27:20;;;;;;;30.15;21.95;;;13.70;99.90;;;;;;5069168;28;20020;-44
2021/09/09 06:29:45;;;;;;;30.73;21.88;;;13.80;99.90;;;;;;5044482;28;20518;-45
2021/09/09 06:32:11;;;;;;;35.47;24.23;;;13.80;99.90;;;;;;5053021;28;20075;-44
2021/09/09 06:34:36;;;;;;;34.13;24.67;;;13.90;99.90;;;;;;5037973;28;20538;-46
2021/09/09 06:37:02;;;;;;;30.98;24.00;;;14.00;99.90;;;;;;5046789;28;20031;-44
2021/09/09 06:39:27;;;;;;;32.25;22.77;;;14.00;99.90;;;;;;5052231;28;20509;-44
2021/09/09 06:41:53;;;;;;;31.58;23.60;;;14.00;99.90;;;;;;5068233;28;20021;-45
2021/09/09 06:44:19;;;;;;;30.30;22.02;;;14.10;99.90;;;;;;5069617;28;20040;-44
2021/09/09 06:46:44;;;;;;;30.65;21.70;;;14.20;99.90;;;;;;5061636;28;20045;-45
2021/09/09 06:49:10;;;;;;;28.45;20.90;;;14.20;99.90;;;;;;5061436;28;20042;-46
2021/09/09 06:51:36;;;;;;;31.73;22.88;;;14.20;99.90;;;;;;5069639;28;20100;-48
2021/09/09 06:54:02;;;;;;;36.05;23.42;;;14.30;99.90;;;;;;5069517;28;20100;-48
2021/09/09 06:56:28;;;;;;;229.32;148.43;;;14.40;99.90;;;;;;5068633;28;20032;-45
2021/09/09 06:58:53;;;;;;;79.57;54.63;;;14.50;99.90;;;;;;5063139;28;20021;-46
2021/09/09 07:01:19;;;;;;;44.42;28.65;;;14.60;99.90;;;;;;5062424;28;20144;-45
2021/09/09 07:03:45;;;;;;;39.53;26.08;;;14.60;99.90;;;;;;5069055;28;20426;-46
2021/09/09 07:06:10;;;;;;;36.60;23.30;;;14.70;99.90;;;;;;5069133;28;20021;-45
2021/09/09 07:08:36;;;;;;;31.20;21.25;;;14.80;99.90;;;;;;5041895;28;20018;-47
2021/09/09 07:11:02;;;;;;;32.45;21.65;;;14.90;99.90;;;;;;5042144;28;20557;-44
2021/09/09 07:13:29;;;;;;;28.48;21.10;;;15.00;99.90;;;;;;5039460;28;20029;-46
2021/09/09 07:15:58;;;;;;;31.10;21.17;;;15.10;99.90;;;;;;5040530;28;20032;-44
2021/09/09 07:18:25;;;;;;;29.90;21.27;;;15.20;99.90;;;;;;5059402;28;20029;-45
2021/09/09 07:20:51;;;;;;;32.95;22.70;;;15.30;99.90;;;;;;5068969;28;20033;-45
2021/09/09 07:23:17;;;;;;;23.95;18.40;;;15.50;99.90;;;;;;5068346;28;20032;-47
2021/09/09 07:25:42;;;;;;;23.45;18.15;;;15.70;99.90;;;;;;5067080;28;20467;-45
2021/09/09 07:28:08;;;;;;;24.73;17.63;;;16.10;99.90;;;;;;5053153;28;20029;-45
2021/09/09 07:30:35;;;;;;;26.88;18.17;;;16.50;99.90;;;;;;5062157;28;20021;-45
2021/09/09 07:33:00;;;;;;;25.88;18.45;;;16.70;99.90;;;;;;5068677;28;20013;-45
2021/09/09 07:35:27;;;;;;;27.50;17.83;;;16.90;99.90;;;;;;5049205;28;20512;-46
2021/09/09 07:37:53;;;;;;;58.25;40.03;;;16.90;99.90;;;;;;5049106;28;20111;-46
2021/09/09 07:40:19;;;;;;;47.05;32.63;;;16.90;99.90;;;;;;5048642;28;20346;-45
2021/09/09 07:42:44;;;;;;;42.15;31.10;;;17.00;99.90;;;;;;5046980;28;20052;-45
2021/09/09 07:45:10;;;;;;;33.63;23.58;;;17.00;99.90;;;;;;5040613;28;20026;-45
2021/09/09 07:47:35;;;;;;;25.92;19.30;;;17.00;99.90;;;;;;5036686;28;20029;-45
2021/09/09 07:50:01;;;;;;;24.15;17.23;;;17.10;99.90;;;;;;5041303;28;20020;-45
2021/09/09 07:52:27;;;;;;;23.58;16.80;;;17.20;99.90;;;;;;5039462;28;20095;-46
2021/09/09 07:54:52;;;;;;;24.08;16.17;;;17.50;99.90;;;;;;5043115;28;20044;-45
2021/09/09 07:57:18;;;;;;;21.42;16.42;;;18.20;99.90;;;;;;5037074;28;20043;-46
2021/09/09 07:59:43;;;;;;;21.98;15.45;;;18.90;99.90;;;;;;5041214;28;20419;-47
2021/09/09 08:02:09;;;;;;;19.83;15.68;;;19.70;99.90;;;;;;5042751;28;20518;-47
2021/09/09 08:04:35;;;;;;;17.88;13.75;;;20.30;99.90;;;;;;5037954;28;20031;-48
2021/09/09 08:07:00;;;;;;;17.92;13.48;;;20.70;99.90;;;;;;5039969;28;20021;-47
2021/09/09 08:09:25;;;;;;;20.80;14.32;;;21.10;99.90;;;;;;5037033;28;20013;-46
2021/09/09 08:11:51;;;;;;;16.02;13.25;;;21.30;99.90;;;;;;5031030;28;20060;-46
2021/09/09 08:14:17;;;;;;;17.13;12.57;;;21.60;99.90;;;;;;5026882;28;20087;-47
2021/09/09 08:16:42;;;;;;;19.08;12.00;;;22.40;99.90;;;;;;5042981;28;20036;-49
2021/09/09 08:19:07;;;;;;;16.90;11.70;;;23.40;99.90;;;;;;5046800;28;20028;-48
2021/09/09 08:21:33;;;;;;;13.43;10.80;;;24.40;99.90;;;;;;5043920;28;20038;-46
2021/09/09 08:23:58;;;;;;;17.50;11.02;;;25.50;97.70;;;;;;5040331;28;20029;-49
2021/09/09 08:26:24;;;;;;;17.30;11.40;;;26.90;94.30;;;;;;5032532;28;20651;-47
2021/09/09 08:28:49;;;;;;;17.20;10.82;;;28.30;90.20;;;;;;5041734;28;20053;-48
2021/09/09 08:31:15;;;;;;;14.90;10.63;;;29.60;82.10;;;;;;5062397;28;20129;-49
2021/09/09 08:33:42;;;;;;;14.15;10.23;;;30.80;75.50;;;;;;5068304;28;20486;-50
2021/09/09 08:36:09;;;;;;;10.60;9.60;;;31.80;70.90;;;;;;5044843;28;20425;-48
2021/09/09 08:38:35;;;;;;;10.85;8.02;;;32.80;62.90;;;;;;5035579;28;20029;-46
2021/09/09 08:41:02;;;;;;;13.80;8.13;;;32.90;63.90;;;;;;5048162;28;20502;-48
2021/09/09 08:43:29;;;;;;;10.73;8.07;;;33.80;60.70;;;;;;5047139;28;20376;-47
2021/09/09 08:45:55;;;;;;;11.73;8.18;;;34.30;58.50;;;;;;5039550;28;20029;-47
2021/09/09 08:48:22;;;;;;;11.82;8.70;;;34.70;57.40;;;;;;5032922;28;20025;-47
2021/09/09 08:50:48;;;;;;;14.63;8.20;;;35.00;54.90;;;;;;5043138;28;20021;-47
2021/09/09 08:53:34;;;;;;;11.05;8.68;;;35.30;54.40;;;;;;5065550;28;20154;-47
2021/09/09 08:56:19;;;;;;;9.63;7.72;;;35.90;53.90;;;;;;5018672;28;20049;-47
2021/09/09 08:58:45;;;;;;;8.27;7.47;;;36.40;54.00;;;;;;5025846;28;20040;-47
2021/09/09 09:01:18;;;;;;;9.15;7.60;;;37.20;50.50;;;;;;5022217;28;20091;-47
2021/09/09 09:03:53;;;;;;;8.40;6.55;;;37.50;49.40;;;;;;5036261;28;20017;-47
2021/09/09 09:06:21;;;;;;;10.75;7.07;;;37.80;48.30;;;;;;5037811;28;20490;-48
2021/09/09 09:08:51;;;;;;;9.65;7.05;;;38.20;48.40;;;;;;5038846;28;20122;-50
2021/09/09 09:11:29;;;;;;;12.57;7.45;;;38.30;47.20;;;;;;5036287;28;20560;-50
2021/09/09 09:13:56;;;;;;;7.93;6.88;;;38.60;46.40;;;;;;5039627;28;20082;-48
2021/09/09 09:16:23;;;;;;;8.57;7.68;;;38.80;45.30;;;;;;5032071;28;20479;-49
2021/09/09 09:18:49;;;;;;;8.23;7.10;;;39.00;45.70;;;;;;5036893;28;20036;-48
2021/09/09 09:21:17;;;;;;;7.70;6.90;;;38.70;44.20;;;;;;5040076;28;20029;-47
2021/09/09 09:23:51;;;;;;;9.90;7.17;;;38.90;46.00;;;;;;5040439;28;20570;-49
2021/09/09 09:26:18;;;;;;;10.32;7.38;;;39.80;43.80;;;;;;5039162;28;20083;-47
2021/09/09 09:29:09;;;;;;;8.90;7.32;;;40.10;43.80;;;;;;5038897;28;20013;-48
2021/09/09 09:31:36;;;;;;;7.70;7.00;;;40.50;42.00;;;;;;5043054;28;20037;-49
2021/09/09 09:34:07;;;;;;;7.72;6.30;;;40.90;40.20;;;;;;5042720;28;20052;-47
2021/09/09 09:36:40;;;;;;;10.57;6.90;;;40.80;41.00;;;;;;5042131;28;20012;-49
2021/09/09 09:39:10;;;;;;;8.63;6.40;;;41.10;39.10;;;;;;5041656;28;20108;-47
2021/09/09 09:41:38;;;;;;;6.93;6.25;;;41.20;38.90;;;;;;5038618;28;20236;-47
2021/09/09 09:44:07;;;;;;;9.03;6.17;;;40.70;40.90;;;;;;5039232;28;20069;-47
2021/09/09 09:46:39;;;;;;;9.30;8.10;;;41.30;39.90;;;;;;5032334;28;20197;-48
2021/09/09 09:49:24;;;;;;;7.53;6.82;;;41.60;39.70;;;;;;5057425;28;20025;-50
2021/09/09 09:51:50;;;;;;;8.10;6.30;;;41.70;38.50;;;;;;5058183;28;20021;-48
2021/09/09 09:54:17;;;;;;;9.65;6.30;;;41.70;38.40;;;;;;5063235;28;20720;-49
2021/09/09 09:56:44;;;;;;;7.43;6.13;;;42.00;38.40;;;;;;5057818;28;20078;-47
2021/09/09 09:59:10;;;;;;;6.63;5.90;;;41.90;38.40;;;;;;5046892;28;20029;-50
2021/09/09 10:01:36;;;;;;;9.73;6.32;;;42.00;37.90;;;;;;5052843;28;20033;-50
2021/09/09 10:04:05;;;;;;;7.65;6.13;;;41.60;40.50;;;;;;5050132;28;20034;-49
2021/09/09 10:06:31;;;;;;;6.82;6.22;;;41.50;38.00;;;;;;5040598;28;20017;-49
2021/09/09 10:08:58;;;;;;;9.80;6.93;;;42.20;37.40;;;;;;5040537;28;20594;-50
2021/09/09 10:11:23;;;;;;;7.53;6.18;;;42.10;38.20;;;;;;5039926;28;20017;-48
2021/09/09 10:13:49;;;;;;;7.13;5.75;;;42.50;35.20;;;;;;5039513;28;20116;-50
2021/09/09 10:16:16;;;;;;;7.30;5.82;;;41.10;36.80;;;;;;5049787;28;20595;-50
2021/09/09 10:18:42;;;;;;;9.63;6.00;;;40.80;35.50;;;;;;5041400;28;20028;-47
2021/09/09 10:21:08;;;;;;;10.63;5.95;;;40.50;35.90;;;;;;5048684;28;20486;-50
2021/09/09 10:23:34;;;;;;;6.55;5.63;;;40.90;36.60;;;;;;5050151;28;20025;-48
2021/09/09 10:26:01;;;;;;;6.45;5.65;;;41.20;37.00;;;;;;5049757;28;20515;-47
2021/09/09 10:28:33;;;;;;;7.90;5.45;;;41.70;36.30;;;;;;5043539;28;20522;-50
2021/09/09 10:31:03;;;;;;;7.45;5.57;;;42.20;35.50;;;;;;5061397;28;20032;-50
2021/09/09 10:33:30;;;;;;;6.05;5.45;;;42.20;36.10;;;;;;5069956;28;20055;-48
2021/09/09 10:35:56;;;;;;;6.72;6.10;;;41.60;35.90;;;;;;5070011;28;20107;-50
2021/09/09 10:38:22;;;;;;;8.65;5.72;;;42.00;36.00;;;;;;5042460;28;20037;-47
2021/09/09 10:40:48;;;;;;;5.97;5.38;;;42.10;36.90;;;;;;5056092;28;20253;-47
2021/09/09 10:43:24;;;;;;;6.13;5.63;;;42.40;35.10;;;;;;5068982;28;20363;-47
2021/09/09 10:46:03;;;;;;;6.70;5.97;;;42.10;35.60;;;;;;5069932;28;20100;-47
2021/09/09 10:48:30;;;;;;;6.45;5.80;;;42.30;36.30;;;;;;5059969;28;20027;-47
2021/09/09 10:50:57;;;;;;;6.57;5.82;;;42.40;35.40;;;;;;5050912;28;20025;-48
2021/09/09 10:53:47;;;;;;;9.82;6.22;;;41.60;35.60;;;;;;5049944;28;20297;-49
2021/09/09 10:56:15;;;;;;;9.13;6.25;;;41.30;35.00;;;;;;5050014;28;20052;-48
2021/09/09 10:58:42;;;;;;;8.18;5.43;;;40.40;34.30;;;;;;5048154;28;20029;-49
2021/09/09 11:01:09;;;;;;;8.55;6.18;;;39.60;35.60;;;;;;5030973;28;20030;-48
2021/09/09 11:03:45;;;;;;;9.57;5.50;;;38.10;38.50;;;;;;5052962;28;20059;-49
2021/09/09 11:06:30;;;;;;;7.00;6.30;;;37.90;38.20;;;;;;5048584;28;20204;-46
2021/09/09 11:08:57;;;;;;;8.13;6.25;;;38.70;40.20;;;;;;5056715;28;20036;-49
2021/09/09 11:11:28;;;;;;;6.05;5.45;;;39.20;37.70;;;;;;5050768;28;20177;-49
2021/09/09 11:14:05;;;;;;;6.22;5.28;;;39.10;36.80;;;;;;5032108;28;20040;-47
2021/09/09 11:16:33;;;;;;;7.15;5.95;;;39.10;36.80;;;;;;5039860;28;20024;-48
2021/09/09 11:18:59;;;;;;;8.10;5.50;;;39.30;37.10;;;;;;5037948;28;20029;-49
2021/09/09 11:21:31;;;;;;;9.02;5.68;;;39.30;36.50;;;;;;5035266;28;20027;-48
2021/09/09 11:24:17;;;;;;;5.88;5.28;;;39.40;35.70;;;;;;5036575;28;20384;-47
2021/09/09 11:26:45;;;;;;;9.10;5.53;;;38.50;35.50;;;;;;5025565;28;20045;-49
2021/09/09 11:29:11;;;;;;;8.43;5.53;;;38.50;36.80;;;;;;5043252;28;20445;-47
2021/09/09 11:31:44;;;;;;;7.72;5.60;;;38.60;37.00;;;;;;5037950;28;20046;-50
2021/09/09 11:34:10;;;;;;;8.10;5.47;;;38.20;39.00;;;;;;5041269;28;20513;-47
2021/09/09 11:36:44;;;;;;;6.18;5.60;;;38.70;36.80;;;;;;5043480;28;20207;-47
2021/09/09 11:39:12;;;;;;;7.22;5.55;;;37.20;37.70;;;;;;5036907;28;20086;-49
2021/09/09 11:41:40;;;;;;;6.07;5.43;;;38.30;39.10;;;;;;5043493;28;20025;-44
2021/09/09 11:44:22;;;;;;;10.35;5.65;;;38.40;37.70;;;;;;5041484;28;20025;-43
2021/09/09 11:46:50;;;;;;;11.40;5.40;;;38.90;37.30;;;;;;5038816;28;20009;-44
2021/09/09 11:49:18;;;;;;;9.82;5.80;;;38.60;36.40;;;;;;5037471;28;20022;-43
2021/09/09 11:51:50;;;;;;;6.80;6.10;;;37.30;37.60;;;;;;5038693;28;20029;-43
2021/09/09 11:54:24;;;;;;;5.95;5.35;;;37.70;39.60;;;;;;5056474;28;20036;-46
2021/09/09 11:56:50;;;;;;;5.43;4.93;;;38.00;37.10;;;;;;5048567;28;20109;-45
2021/09/09 11:59:18;;;;;;;9.73;6.20;;;37.70;37.60;;;;;;5050406;28;20044;-46
2021/09/09 12:01:46;;;;;;;6.95;5.68;;;37.20;38.70;;;;;;5064869;28;20096;-45
2021/09/09 12:04:12;;;;;;;6.88;5.75;;;38.20;37.90;;;;;;5068712;28;20033;-43
2021/09/09 12:06:39;;;;;;;11.38;6.40;;;37.40;38.00;;;;;;5067649;28;20017;-43
2021/09/09 12:09:05;;;;;;;6.32;5.72;;;37.90;37.40;;;;;;5068610;28;20119;-44
2021/09/09 12:11:33;;;;;;;8.13;5.88;;;37.50;38.70;;;;;;5054424;28;20032;-44
2021/09/09 12:14:14;;;;;;;6.90;6.20;;;37.60;39.70;;;;;;5047444;28;20029;-42
2021/09/09 12:16:40;;;;;;;7.03;5.88;;;37.20;39.90;;;;;;5054513;28;20208;-45
2021/09/09 12:19:10;;;;;;;12.73;6.40;;;36.00;40.80;;;;;;5060070;28;20036;-45
2021/09/09 12:21:50;;;;;;;11.52;6.18;;;34.90;40.60;;;;;;5049413;28;20025;-43
2021/09/09 12:24:20;;;;;;;6.43;5.53;;;34.30;41.70;;;;;;5027441;28;20319;-43
2021/09/09 12:27:00;;;;;;;6.97;5.95;;;34.30;42.30;;;;;;5027678;28;20049;-43
2021/09/09 12:29:36;;;;;;;6.60;5.97;;;34.40;42.30;;;;;;5058705;28;20023;-42
2021/09/09 12:32:19;;;;;;;8.10;6.43;;;33.90;43.70;;;;;;5044169;28;20033;-44